Home   Weather   USA   Brownsville   Past weeks
Flag for USA

Past Weather in Brownsville, Texas, USA — February 2022

Currently: 69 °F. Fog. (Weather station: Brownsville / South Padre Island International Airport, USA). See more current weather

February 2022 Weather in Brownsville — Graph

°F

High & Low Weather Summary for February 2022

 TemperatureHumidityPressure
High86 °F (Feb 22, 1:53 pm)97% (Feb 1, 9:53 am)30.63 "Hg (Feb 1, 9:53 am)
Low35 °F (Feb 4, 5:53 am)26% (Feb 13, 2:53 pm)29.67 "Hg (Feb 2, 3:53 pm)
Average59 °F76%30.14 "Hg
* Reported Feb 1 12:53 am — Feb 28 11:53 pm, Brownsville. Weather by CustomWeather, © 2022

Note: Actual official high and low records may vary slightly from our data, if they occured in-between our weather recording intervals... More about our weather records

Brownsville Weather History for February 1, 2022

Scroll right to see more
 ConditionsComfort  
Time TempWeatherWind HumidityBarometerVisibility
12:53 am
Tue, Feb 1
65 °FClear.8 mph91%29.85 "HgN/A
1:53 am65 °FClear.8 mph91%29.84 "HgN/A
2:53 am65 °FClear.6 mph91%29.83 "HgN/A
3:53 am63 °FClear.3 mph90%29.83 "HgN/A
4:26 am62 °FPassing clouds.No wind93%29.83 "HgN/A
5:04 am58 °FLow clouds.5 mph93%29.82 "HgN/A
5:21 am58 °FLow clouds.3 mph93%29.82 "HgN/A
5:53 am59 °FFog.3 mph93%29.82 "Hg4 mi
6:35 am57 °FLow clouds.3 mph93%29.83 "HgN/A
7:03 am58 °FFog.5 mph93%29.83 "Hg1 mi
7:53 am59 °FFog.3 mph96%29.85 "Hg1 mi
9:00 am59 °FFog.7 mph96%29.88 "Hg0 mi
9:53 am61 °FFog.6 mph97%29.89 "Hg0 mi
10:53 am64 °FFog.7 mph90%29.89 "Hg3 mi
11:28 am66 °FLow clouds.8 mph84%29.89 "Hg4 mi
11:53 am67 °FLow clouds.6 mph79%29.88 "Hg4 mi
12:53 pm66 °FLow clouds.7 mph78%29.85 "Hg8 mi
1:53 pm68 °FScattered clouds.8 mph73%29.81 "Hg10 mi
2:53 pm71 °FSunny.10 mph66%29.80 "Hg10 mi
3:53 pm71 °FSunny.10 mph68%29.78 "Hg10 mi
4:53 pm70 °FSunny.12 mph71%29.78 "Hg10 mi
5:53 pm67 °FSunny.10 mph79%29.78 "Hg10 mi
6:53 pm63 °FClear.3 mph90%29.78 "Hg10 mi
7:53 pm62 °FClear.5 mph90%29.80 "Hg10 mi
8:53 pm63 °FClear.6 mph93%29.80 "Hg10 mi
9:53 pm63 °FFog.6 mph93%29.80 "Hg5 mi
10:53 pm64 °FFog.6 mph94%29.80 "Hg5 mi
11:53 pm66 °FFog.10 mph93%29.80 "Hg5 mi
Weather by CustomWeather, © 2022

See weather overview